createdAt,value
2023-04-08T00:00:01.108Z,1018.63
2023-04-08T00:01:01.088Z,1018.64
2023-04-08T00:02:01.088Z,1018.66
2023-04-08T00:03:01.513Z,1018.67
2023-04-08T00:04:01.541Z,1018.61
2023-04-08T00:05:01.283Z,1018.65
2023-04-08T00:06:03.540Z,1018.6
2023-04-08T00:07:01.153Z,1018.65
2023-04-08T00:08:01.129Z,1018.7
2023-04-08T00:09:01.428Z,1018.62
2023-04-08T00:10:01.466Z,1018.63
2023-04-08T00:11:06.928Z,1018.61
2023-04-08T00:12:01.050Z,1018.61
2023-04-08T00:13:00.646Z,1018.61
2023-04-08T00:14:00.246Z,1018.58
2023-04-08T00:14:59.928Z,1018.58
2023-04-08T00:16:09.783Z,1018.56
2023-04-08T00:17:01.243Z,1018.57
2023-04-08T00:18:01.440Z,1018.6
2023-04-08T00:19:02.334Z,1018.59
2023-04-08T00:20:01.240Z,1018.62
2023-04-08T00:21:12.807Z,1018.54
2023-04-08T00:22:01.956Z,1018.55
2023-04-08T00:23:01.411Z,1018.56
2023-04-08T00:24:01.163Z,1018.54
2023-04-08T00:25:01.052Z,1018.51
2023-04-08T00:26:15.636Z,1018.57
2023-04-08T00:27:01.285Z,1018.53
2023-04-08T00:28:01.364Z,1018.56
2023-04-08T00:29:01.373Z,1018.56
2023-04-08T00:30:01.465Z,1018.58
2023-04-08T00:31:01.186Z,1018.52
2023-04-08T00:32:01.073Z,1018.56
2023-04-08T00:33:01.149Z,1018.59
2023-04-08T00:34:01.095Z,1018.62
2023-04-08T00:35:01.100Z,1018.62
2023-04-08T00:36:01.113Z,1018.61
2023-04-08T00:37:01.424Z,1018.63
2023-04-08T00:38:02.353Z,1018.62
2023-04-08T00:39:04.182Z,1018.62
2023-04-08T00:40:02.211Z,1018.64
2023-04-08T00:41:01.135Z,1018.64
2023-04-08T00:42:01.042Z,1018.67
2023-04-08T00:43:01.037Z,1018.66
2023-04-08T00:44:01.054Z,1018.63
2023-04-08T00:45:01.855Z,1018.67
2023-04-08T00:46:01.381Z,1018.66
2023-04-08T00:47:01.076Z,1018.66
2023-04-08T00:48:01.124Z,1018.66
2023-04-08T00:49:01.091Z,1018.66
2023-04-08T00:50:01.104Z,1018.62
2023-04-08T00:51:01.115Z,1018.65
2023-04-08T00:52:01.372Z,1018.63
2023-04-08T00:53:01.501Z,1018.71
2023-04-08T00:54:01.212Z,1018.68
2023-04-08T00:55:01.190Z,1018.65
2023-04-08T00:56:01.155Z,1018.7
2023-04-08T00:57:01.130Z,1018.66
2023-04-08T00:58:01.083Z,1018.7
2023-04-08T00:59:01.062Z,1018.67
2023-04-08T01:00:01.058Z,1018.66
2023-04-08T01:01:01.111Z,1018.67
2023-04-08T01:02:01.177Z,1018.7
2023-04-08T01:03:01.625Z,1018.69
2023-04-08T01:04:01.210Z,1018.71
2023-04-08T01:05:01.095Z,1018.69
2023-04-08T01:06:01.104Z,1018.7
2023-04-08T01:07:01.430Z,1018.72
2023-04-08T01:08:01.256Z,1018.74
2023-04-08T01:09:02.484Z,1018.7
2023-04-08T01:10:01.856Z,1018.71
2023-04-08T01:11:01.128Z,1018.73
2023-04-08T01:12:01.533Z,1018.71
2023-04-08T01:13:01.663Z,1018.79
2023-04-08T01:14:01.717Z,1018.78
2023-04-08T01:15:01.826Z,1018.72
2023-04-08T01:16:01.752Z,1018.73
2023-04-08T01:17:01.080Z,1018.76
2023-04-08T01:18:01.099Z,1018.75
2023-04-08T01:19:01.431Z,1018.72
2023-04-08T01:20:01.447Z,1018.81
2023-04-08T01:21:01.432Z,1018.77
2023-04-08T01:22:01.107Z,1018.77
2023-04-08T01:23:01.100Z,1018.78
2023-04-08T01:24:01.262Z,1018.75
2023-04-08T01:25:01.107Z,1018.79
2023-04-08T01:26:01.123Z,1018.73
2023-04-08T01:27:01.121Z,1018.76
2023-04-08T01:28:01.531Z,1018.74
2023-04-08T01:29:01.140Z,1018.75
2023-04-08T01:30:01.071Z,1018.78
2023-04-08T01:31:01.257Z,1018.7
2023-04-08T01:32:01.072Z,1018.72
2023-04-08T01:33:01.130Z,1018.69
2023-04-08T01:34:01.794Z,1018.71
2023-04-08T01:35:01.053Z,1018.69
2023-04-08T01:36:01.103Z,1018.66
2023-04-08T01:37:01.397Z,1018.67
2023-04-08T01:38:01.076Z,1018.67
2023-04-08T01:39:01.026Z,1018.68
2023-04-08T01:40:01.100Z,1018.65
2023-04-08T01:41:01.122Z,1018.62
2023-04-08T01:42:01.111Z,1018.66
2023-04-08T01:43:01.112Z,1018.61
2023-04-08T01:44:01.164Z,1018.65
2023-04-08T01:45:01.157Z,1018.63
2023-04-08T01:46:01.043Z,1018.62
2023-04-08T01:47:01.242Z,1018.69
2023-04-08T01:48:01.078Z,1018.62
2023-04-08T01:49:05.198Z,1018.63
2023-04-08T01:50:01.771Z,1018.64
2023-04-08T01:51:01.058Z,1018.68
2023-04-08T01:52:01.071Z,1018.67
2023-04-08T01:53:01.035Z,1018.7
2023-04-08T01:54:01.061Z,1018.68
2023-04-08T01:55:01.576Z,1018.67
2023-04-08T01:56:01.117Z,1018.66
2023-04-08T01:57:03.591Z,1018.66
2023-04-08T01:58:02.672Z,1018.73
2023-04-08T01:59:01.665Z,1018.74
2023-04-08T02:00:01.218Z,1018.74
2023-04-08T02:01:01.131Z,1018.73
2023-04-08T02:02:06.186Z,1018.81
2023-04-08T02:03:02.701Z,1018.8
2023-04-08T02:04:02.933Z,1018.79
2023-04-08T02:05:01.048Z,1018.79
2023-04-08T02:06:01.064Z,1018.84
2023-04-08T02:07:09.968Z,1018.88
2023-04-08T02:08:01.078Z,1018.84
2023-04-08T02:09:01.126Z,1018.86
2023-04-08T02:10:01.136Z,1018.79
2023-04-08T02:11:01.522Z,1018.85
2023-04-08T02:12:11.672Z,1018.89
2023-04-08T02:13:01.260Z,1018.84
2023-04-08T02:14:01.054Z,1018.87
2023-04-08T02:15:01.130Z,1018.84
2023-04-08T02:16:01.282Z,1018.87
2023-04-08T02:17:15.269Z,1018.92
2023-04-08T02:18:01.210Z,1018.89
2023-04-08T02:19:01.189Z,1018.89
2023-04-08T02:20:01.497Z,1018.9
2023-04-08T02:21:01.426Z,1018.92
2023-04-08T02:22:16.680Z,1018.96
2023-04-08T02:23:02.197Z,1018.93
2023-04-08T02:24:03.321Z,1018.94
2023-04-08T02:25:00.818Z,1018.96
2023-04-08T02:26:00.460Z,1018.94
2023-04-08T02:27:00.194Z,1018.89
2023-04-08T02:27:59.878Z,1018.96
2023-04-08T02:28:59.584Z,1018.96
2023-04-08T02:30:01.132Z,1018.94
2023-04-08T02:31:01.521Z,1018.93
2023-04-08T02:32:01.255Z,1018.92
2023-04-08T02:33:01.189Z,1018.95
2023-04-08T02:34:01.156Z,1018.96
2023-04-08T02:35:01.046Z,1019
2023-04-08T02:36:01.092Z,1018.97
2023-04-08T02:37:02.180Z,1018.95
2023-04-08T02:38:01.188Z,1018.96
2023-04-08T02:39:02.501Z,1018.97
2023-04-08T02:40:02.146Z,1019.02
2023-04-08T02:41:02.286Z,1019
2023-04-08T02:42:02.426Z,1019
2023-04-08T02:43:02.004Z,1019.06
2023-04-08T02:44:02.004Z,1019
2023-04-08T02:45:01.179Z,1019.03
2023-04-08T02:46:01.143Z,1019.02
2023-04-08T02:47:00.507Z,1019
2023-04-08T02:48:00.186Z,1019.03
2023-04-08T02:48:59.749Z,1019.04
2023-04-08T02:50:01.452Z,1019.06
2023-04-08T02:51:01.045Z,1019.06
2023-04-08T02:52:01.054Z,1019.05
2023-04-08T02:53:01.057Z,1019.06
2023-04-08T02:54:00.741Z,1019.02
2023-04-08T02:55:00.347Z,1019.05
2023-04-08T02:56:00.039Z,1019.03
2023-04-08T02:56:59.596Z,1019.04
2023-04-08T02:58:01.296Z,1019.09
2023-04-08T02:59:02.202Z,1019.07
2023-04-08T03:00:02.089Z,1019.04
2023-04-08T03:01:01.271Z,1019.04
2023-04-08T03:02:01.335Z,1019.01
2023-04-08T03:03:01.275Z,1019.03
2023-04-08T03:04:02.561Z,1019.04
2023-04-08T03:05:01.061Z,1019.02
2023-04-08T03:06:01.134Z,1019
2023-04-08T03:07:01.049Z,1018.98
2023-04-08T03:08:01.036Z,1019
2023-04-08T03:09:00.811Z,1019.01
2023-04-08T03:10:00.436Z,1019.03
2023-04-08T03:11:00.180Z,1019.04
2023-04-08T03:11:59.847Z,1019.06
2023-04-08T03:12:59.439Z,1019.09
2023-04-08T03:14:01.090Z,1019.09
2023-04-08T03:15:01.109Z,1019.09
2023-04-08T03:16:01.354Z,1019.12
2023-04-08T03:17:01.526Z,1019.13
2023-04-08T03:18:01.119Z,1019.07
2023-04-08T03:19:01.832Z,1019.11
2023-04-08T03:20:03.836Z,1019.11
2023-04-08T03:21:01.627Z,1019.14
2023-04-08T03:22:03.299Z,1019.15
2023-04-08T03:23:01.231Z,1019.19
2023-04-08T03:24:01.435Z,1019.23
2023-04-08T03:25:01.047Z,1019.22
2023-04-08T03:26:01.057Z,1019.26
2023-04-08T03:27:01.068Z,1019.28
2023-04-08T03:28:01.076Z,1019.26
2023-04-08T03:29:01.722Z,1019.24
2023-04-08T03:30:01.112Z,1019.22
2023-04-08T03:31:01.026Z,1019.25
2023-04-08T03:32:01.242Z,1019.24
2023-04-08T03:33:01.268Z,1019.28
2023-04-08T03:34:02.351Z,1019.29
2023-04-08T03:35:02.149Z,1019.32
2023-04-08T03:36:01.200Z,1019.32
2023-04-08T03:37:01.131Z,1019.29
2023-04-08T03:38:04.288Z,1019.3
2023-04-08T03:39:01.045Z,1019.26
2023-04-08T03:40:01.060Z,1019.26
2023-04-08T03:41:01.180Z,1019.26
2023-04-08T03:42:01.349Z,1019.23
2023-04-08T03:43:07.219Z,1019.21
2023-04-08T03:44:01.101Z,1019.25
2023-04-08T03:45:01.093Z,1019.26
2023-04-08T03:46:01.105Z,1019.25
2023-04-08T03:47:01.084Z,1019.28
2023-04-08T03:48:09.090Z,1019.24
2023-04-08T03:49:01.213Z,1019.3
2023-04-08T03:50:02.528Z,1019.33
2023-04-08T03:51:01.829Z,1019.32
2023-04-08T03:52:01.409Z,1019.29
2023-04-08T03:53:11.044Z,1019.34
2023-04-08T03:54:01.246Z,1019.3
2023-04-08T03:55:01.162Z,1019.34
2023-04-08T03:56:01.953Z,1019.34
2023-04-08T03:57:01.033Z,1019.34
2023-04-08T03:58:14.845Z,1019.35
2023-04-08T03:59:01.030Z,1019.35
2023-04-08T04:00:01.472Z,1019.37
2023-04-08T04:01:01.087Z,1019.4
2023-04-08T04:02:01.333Z,1019.39
2023-04-08T04:03:02.320Z,1019.38
2023-04-08T04:04:02.278Z,1019.37
2023-04-08T04:05:02.234Z,1019.44
2023-04-08T04:06:01.096Z,1019.44
2023-04-08T04:07:01.113Z,1019.41
2023-04-08T04:08:01.104Z,1019.47
2023-04-08T04:09:01.389Z,1019.49
2023-04-08T04:10:01.161Z,1019.5
2023-04-08T04:11:01.277Z,1019.48
2023-04-08T04:12:01.047Z,1019.52
2023-04-08T04:13:00.848Z,1019.49
2023-04-08T04:14:00.444Z,1019.55
2023-04-08T04:14:59.990Z,1019.51
2023-04-08T04:15:59.846Z,1019.51
2023-04-08T04:16:59.519Z,1019.55
2023-04-08T04:18:01.485Z,1019.6
2023-04-08T04:19:01.145Z,1019.61
2023-04-08T04:20:01.875Z,1019.62
2023-04-08T04:21:01.100Z,1019.66
2023-04-08T04:22:01.109Z,1019.67
2023-04-08T04:23:01.125Z,1019.65
2023-04-08T04:24:02.142Z,1019.68
2023-04-08T04:25:01.420Z,1019.71
2023-04-08T04:26:01.508Z,1019.74
2023-04-08T04:27:01.125Z,1019.68
2023-04-08T04:28:01.042Z,1019.72
2023-04-08T04:29:01.040Z,1019.76
2023-04-08T04:30:01.039Z,1019.71
2023-04-08T04:31:01.172Z,1019.74
2023-04-08T04:32:00.840Z,1019.78
2023-04-08T04:33:01.475Z,1019.79
2023-04-08T04:34:01.068Z,1019.81
2023-04-08T04:35:01.021Z,1019.77
2023-04-08T04:36:01.112Z,1019.81
2023-04-08T04:37:01.081Z,1019.78
2023-04-08T04:38:01.527Z,1019.76
2023-04-08T04:39:01.414Z,1019.78
2023-04-08T04:40:02.043Z,1019.85
2023-04-08T04:41:01.106Z,1019.84
2023-04-08T04:42:01.757Z,1019.89
2023-04-08T04:43:00.718Z,1019.86
2023-04-08T04:44:00.288Z,1019.9
2023-04-08T04:45:00.026Z,1019.91
2023-04-08T04:46:00.123Z,1019.88
2023-04-08T04:47:00.107Z,1019.88
2023-04-08T04:48:00.164Z,1019.91
2023-04-08T04:49:00.461Z,1019.94
2023-04-08T04:50:00.045Z,1019.94
2023-04-08T04:50:59.722Z,1019.95
2023-04-08T04:52:01.370Z,1019.95
2023-04-08T04:53:02.200Z,1019.97
2023-04-08T04:54:01.092Z,1019.97
2023-04-08T04:55:01.012Z,1020.02
2023-04-08T04:56:01.116Z,1019.96
2023-04-08T04:57:01.114Z,1020
2023-04-08T04:58:01.135Z,1019.98
2023-04-08T04:59:01.315Z,1019.98
2023-04-08T05:00:02.295Z,1020
2023-04-08T05:01:01.139Z,1020.02
2023-04-08T05:02:01.115Z,1020.04
2023-04-08T05:03:01.086Z,1020.02
2023-04-08T05:04:01.066Z,1020.03
2023-04-08T05:05:01.091Z,1020.08
2023-04-08T05:06:01.032Z,1020.1
2023-04-08T05:07:01.101Z,1020.12
2023-04-08T05:08:01.116Z,1020.12
2023-04-08T05:09:00.775Z,1020.09
2023-04-08T05:10:00.796Z,1020.1
2023-04-08T05:11:00.385Z,1020.12
2023-04-08T05:12:00.003Z,1020.11
2023-04-08T05:12:59.673Z,1020.07
2023-04-08T05:14:01.335Z,1020.13
2023-04-08T05:15:02.009Z,1020.14
2023-04-08T05:16:02.571Z,1020.13
2023-04-08T05:17:01.187Z,1020.2
2023-04-08T05:18:01.055Z,1020.16
2023-04-08T05:19:01.343Z,1020.2
2023-04-08T05:20:01.458Z,1020.22
2023-04-08T05:21:02.067Z,1020.17
2023-04-08T05:22:02.382Z,1020.24
2023-04-08T05:23:01.072Z,1020.23
2023-04-08T05:24:03.446Z,1020.19
2023-04-08T05:25:01.049Z,1020.27
2023-04-08T05:26:01.099Z,1020.25
2023-04-08T05:27:01.106Z,1020.27
2023-04-08T05:28:01.119Z,1020.33
2023-04-08T05:29:06.479Z,1020.28
2023-04-08T05:30:02.505Z,1020.33
2023-04-08T05:31:01.176Z,1020.35
2023-04-08T05:32:00.941Z,1020.37
2023-04-08T05:33:01.112Z,1020.36
2023-04-08T05:34:09.215Z,1020.37
2023-04-08T05:35:00.834Z,1020.36
2023-04-08T05:36:01.090Z,1020.4
2023-04-08T05:37:00.553Z,1020.36
2023-04-08T05:38:00.193Z,1020.42
2023-04-08T05:39:12.248Z,1020.44
2023-04-08T05:40:01.848Z,1020.48
2023-04-08T05:41:01.848Z,1020.43
2023-04-08T05:42:02.566Z,1020.45
2023-04-08T05:43:01.493Z,1020.45
2023-04-08T05:44:14.967Z,1020.48
2023-04-08T05:45:04.182Z,1020.48
2023-04-08T05:46:01.167Z,1020.49
2023-04-08T05:47:01.608Z,1020.5
2023-04-08T05:48:01.240Z,1020.51
2023-04-08T05:49:01.970Z,1020.48
2023-04-08T05:50:01.057Z,1020.53
2023-04-08T05:51:01.233Z,1020.54
2023-04-08T05:52:00.759Z,1020.55
2023-04-08T05:53:00.631Z,1020.58
2023-04-08T05:54:00.667Z,1020.58
2023-04-08T05:55:00.354Z,1020.58
2023-04-08T05:56:00.101Z,1020.63
2023-04-08T05:56:59.856Z,1020.6
2023-04-08T05:58:01.769Z,1020.63
2023-04-08T05:59:01.406Z,1020.57
2023-04-08T06:00:01.478Z,1020.6
2023-04-08T06:01:02.251Z,1020.63
2023-04-08T06:02:01.339Z,1020.63
2023-04-08T06:03:04.553Z,1020.68
2023-04-08T06:04:04.324Z,1020.67
2023-04-08T06:05:02.766Z,1020.66
2023-04-08T06:06:01.234Z,1020.73
2023-04-08T06:07:01.035Z,1020.71
2023-04-08T06:08:01.075Z,1020.68
2023-04-08T06:09:01.067Z,1020.77
2023-04-08T06:10:01.244Z,1020.79
2023-04-08T06:11:01.062Z,1020.86
2023-04-08T06:12:00.873Z,1020.79
2023-04-08T06:13:00.588Z,1020.79
2023-04-08T06:14:00.311Z,1020.85
2023-04-08T06:14:59.979Z,1020.89
2023-04-08T06:15:59.653Z,1020.86
2023-04-08T06:17:01.459Z,1020.9
2023-04-08T06:18:02.609Z,1020.9
2023-04-08T06:19:01.236Z,1020.92
2023-04-08T06:20:02.045Z,1020.93
2023-04-08T06:21:02.050Z,1020.99
2023-04-08T06:22:02.108Z,1020.98
2023-04-08T06:23:01.058Z,1021.03
2023-04-08T06:24:01.363Z,1020.99
2023-04-08T06:25:01.681Z,1021.06
2023-04-08T06:26:01.360Z,1021.03
2023-04-08T06:27:02.167Z,1021.07
2023-04-08T06:28:02.207Z,1021.05
2023-04-08T06:29:01.945Z,1021.06
2023-04-08T06:30:01.498Z,1021.08
2023-04-08T06:31:01.108Z,1021.1
2023-04-08T06:32:01.301Z,1021.1
2023-04-08T06:33:01.157Z,1021.12
2023-04-08T06:34:01.137Z,1021.15
2023-04-08T06:35:01.535Z,1021.13
2023-04-08T06:36:01.269Z,1021.16
2023-04-08T06:37:01.934Z,1021.14
2023-04-08T06:38:01.030Z,1021.12
2023-04-08T06:39:01.041Z,1021.13
2023-04-08T06:40:01.330Z,1021.18
2023-04-08T06:41:01.091Z,1021.16
2023-04-08T06:42:01.753Z,1021.16
2023-04-08T06:43:01.079Z,1021.16
2023-04-08T06:44:01.077Z,1021.17
2023-04-08T06:45:01.095Z,1021.19
2023-04-08T06:46:01.217Z,1021.21
2023-04-08T06:47:01.112Z,1021.21
2023-04-08T06:48:01.280Z,1021.23
2023-04-08T06:49:01.471Z,1021.27
2023-04-08T06:50:02.426Z,1021.23
2023-04-08T06:51:01.070Z,1021.28
2023-04-08T06:52:00.708Z,1021.3
2023-04-08T06:53:00.414Z,1021.26
2023-04-08T06:54:00.001Z,1021.32
2023-04-08T06:54:59.701Z,1021.28
2023-04-08T06:56:01.517Z,1021.32
2023-04-08T06:57:02.403Z,1021.28
2023-04-08T06:58:01.577Z,1021.37
2023-04-08T06:59:02.088Z,1021.35
2023-04-08T07:00:01.620Z,1021.39
2023-04-08T07:01:01.120Z,1021.37
2023-04-08T07:02:01.433Z,1021.41
2023-04-08T07:03:01.185Z,1021.43
2023-04-08T07:04:02.014Z,1021.41
2023-04-08T07:05:05.031Z,1021.38
2023-04-08T07:06:01.108Z,1021.44
2023-04-08T07:07:01.523Z,1021.41
2023-04-08T07:08:01.507Z,1021.48
2023-04-08T07:09:01.151Z,1021.46
2023-04-08T07:10:10.749Z,1021.49
2023-04-08T07:11:01.885Z,1021.48
2023-04-08T07:12:00.846Z,1021.54
2023-04-08T07:13:00.451Z,1021.48
2023-04-08T07:14:00.141Z,1021.47
2023-04-08T07:15:09.664Z,1021.49
2023-04-08T07:16:01.873Z,1021.48
2023-04-08T07:17:01.139Z,1021.51
2023-04-08T07:18:01.126Z,1021.53
2023-04-08T07:19:01.094Z,1021.55
2023-04-08T07:20:14.442Z,1021.53
2023-04-08T07:21:01.096Z,1021.54
2023-04-08T07:22:01.121Z,1021.57
2023-04-08T07:23:01.114Z,1021.55
2023-04-08T07:24:01.248Z,1021.6
2023-04-08T07:25:15.645Z,1021.63
2023-04-08T07:26:01.241Z,1021.59
2023-04-08T07:27:01.159Z,1021.68
2023-04-08T07:28:01.052Z,1021.65
2023-04-08T07:29:01.111Z,1021.68
2023-04-08T07:30:01.068Z,1021.67
2023-04-08T07:31:01.181Z,1021.72
2023-04-08T07:32:01.300Z,1021.72
2023-04-08T07:33:01.369Z,1021.73
2023-04-08T07:34:01.103Z,1021.74
2023-04-08T07:35:01.106Z,1021.75
2023-04-08T07:36:01.801Z,1021.75
2023-04-08T07:37:01.493Z,1021.73
2023-04-08T07:38:02.074Z,1021.76
2023-04-08T07:39:01.687Z,1021.78
2023-04-08T07:40:01.142Z,1021.75
2023-04-08T07:41:01.126Z,1021.76
2023-04-08T07:42:01.125Z,1021.78
2023-04-08T07:43:01.840Z,1021.8
2023-04-08T07:44:01.040Z,1021.73
2023-04-08T07:45:01.044Z,1021.79
2023-04-08T07:46:01.472Z,1021.77
2023-04-08T07:47:01.050Z,1021.81
2023-04-08T07:48:01.053Z,1021.78
2023-04-08T07:49:01.076Z,1021.77
2023-04-08T07:50:01.082Z,1021.82
2023-04-08T07:51:08.570Z,1021.79
2023-04-08T07:52:00.802Z,1021.81
2023-04-08T07:53:00.379Z,1021.85
2023-04-08T07:54:00.290Z,1021.8
2023-04-08T07:54:59.984Z,1021.81
2023-04-08T07:55:59.714Z,1021.84
2023-04-08T07:57:01.428Z,1021.87
2023-04-08T07:58:01.129Z,1021.87
2023-04-08T07:59:01.046Z,1021.91
2023-04-08T08:00:01.026Z,1021.85
2023-04-08T08:01:01.447Z,1021.86
2023-04-08T08:02:01.344Z,1021.9
2023-04-08T08:03:04.062Z,1021.91
2023-04-08T08:04:02.388Z,1021.89
2023-04-08T08:05:01.157Z,1021.94
2023-04-08T08:06:01.092Z,1021.94
2023-04-08T08:07:01.296Z,1021.96
2023-04-08T08:08:01.121Z,1021.93
2023-04-08T08:09:01.139Z,1021.94
2023-04-08T08:10:01.115Z,1021.95
2023-04-08T08:11:01.222Z,1021.96
2023-04-08T08:12:01.728Z,1021.93
2023-04-08T08:13:01.144Z,1021.95
2023-04-08T08:14:01.152Z,1021.96
2023-04-08T08:15:01.783Z,1022
2023-04-08T08:16:01.075Z,1022
2023-04-08T08:17:01.056Z,1022.04
2023-04-08T08:18:01.080Z,1022.05
2023-04-08T08:19:01.313Z,1022.09
2023-04-08T08:20:01.490Z,1022.08
2023-04-08T08:21:02.203Z,1022.09
2023-04-08T08:22:01.150Z,1022.08
2023-04-08T08:23:01.131Z,1022.09
2023-04-08T08:24:01.136Z,1022.1
2023-04-08T08:25:01.098Z,1022.09
2023-04-08T08:26:01.114Z,1022.08
2023-04-08T08:27:01.124Z,1022.1
2023-04-08T08:28:01.358Z,1022.09
2023-04-08T08:29:01.135Z,1022.07
2023-04-08T08:30:01.133Z,1022.2
2023-04-08T08:31:01.187Z,1022.14
2023-04-08T08:32:00.930Z,1022.16
2023-04-08T08:33:01.106Z,1022.17
2023-04-08T08:34:01.248Z,1022.12
2023-04-08T08:35:01.064Z,1022.2
2023-04-08T08:36:01.463Z,1022.25
2023-04-08T08:37:01.259Z,1022.26
2023-04-08T08:38:01.554Z,1022.28
2023-04-08T08:39:01.490Z,1022.3
2023-04-08T08:40:01.481Z,1022.25
2023-04-08T08:41:01.092Z,1022.25
2023-04-08T08:42:01.102Z,1022.22
2023-04-08T08:43:01.114Z,1022.31
2023-04-08T08:44:01.117Z,1022.31
2023-04-08T08:45:01.114Z,1022.3
2023-04-08T08:46:01.125Z,1022.32
2023-04-08T08:47:01.103Z,1022.29
2023-04-08T08:48:01.513Z,1022.33
2023-04-08T08:49:01.038Z,1022.37
2023-04-08T08:50:01.045Z,1022.37
2023-04-08T08:51:03.578Z,1022.39
2023-04-08T08:52:00.644Z,1022.39
2023-04-08T08:53:00.240Z,1022.43
2023-04-08T08:53:59.963Z,1022.43
2023-04-08T08:54:59.551Z,1022.51
2023-04-08T08:56:17.706Z,1022.54
2023-04-08T08:57:01.807Z,1022.54
2023-04-08T08:58:01.112Z,1022.5
2023-04-08T08:59:01.024Z,1022.59
2023-04-08T09:00:01.120Z,1022.66
2023-04-08T09:01:09.286Z,1022.62
2023-04-08T09:02:02.073Z,1022.68
2023-04-08T09:03:02.746Z,1022.65
2023-04-08T09:04:02.430Z,1022.68
2023-04-08T09:05:01.472Z,1022.68
2023-04-08T09:06:12.736Z,1022.71
2023-04-08T09:07:03.922Z,1022.71
2023-04-08T09:08:01.816Z,1022.71
2023-04-08T09:09:01.102Z,1022.73
2023-04-08T09:10:01.057Z,1022.73
2023-04-08T09:11:15.053Z,1022.7
2023-04-08T09:12:01.493Z,1022.75
2023-04-08T09:13:00.789Z,1022.78
2023-04-08T09:14:00.416Z,1022.77
2023-04-08T09:15:00.091Z,1022.71
2023-04-08T09:16:14.354Z,1022.78
2023-04-08T09:17:00.607Z,1022.88
2023-04-08T09:18:00.621Z,1022.86
2023-04-08T09:19:00.253Z,1022.95
2023-04-08T09:19:59.906Z,1022.89
2023-04-08T09:20:59.622Z,1022.9
2023-04-08T09:22:01.338Z,1022.94
2023-04-08T09:23:01.132Z,1022.94
2023-04-08T09:24:00.861Z,1022.97
2023-04-08T09:25:00.556Z,1022.97
2023-04-08T09:26:00.244Z,1023
2023-04-08T09:26:59.846Z,1022.95
2023-04-08T09:28:02.158Z,1022.94
2023-04-08T09:29:10.998Z,1022.93
2023-04-08T09:30:02.025Z,1022.95
2023-04-08T09:31:01.958Z,1022.99
2023-04-08T09:32:01.144Z,1023
2023-04-08T09:33:02.096Z,1023
2023-04-08T09:34:01.134Z,1023.05
2023-04-08T09:35:01.149Z,1023.03
2023-04-08T09:36:01.841Z,1023.06
2023-04-08T09:37:02.096Z,1023.03
2023-04-08T09:38:01.509Z,1023.07
2023-04-08T09:39:01.064Z,1023.11
2023-04-08T09:40:01.075Z,1023.05
2023-04-08T09:41:01.063Z,1023.08
2023-04-08T09:42:01.201Z,1023.13
2023-04-08T09:43:01.085Z,1023.1
2023-04-08T09:44:01.086Z,1023.13
2023-04-08T09:45:01.124Z,1023.08
2023-04-08T09:46:01.155Z,1023.09
2023-04-08T09:47:02.192Z,1023.1
2023-04-08T09:48:01.285Z,1023.14
2023-04-08T09:49:01.119Z,1023.14
2023-04-08T09:50:01.129Z,1023.19
2023-04-08T09:51:01.132Z,1023.17
2023-04-08T09:52:00.623Z,1023.17
2023-04-08T09:53:00.314Z,1023.22
2023-04-08T09:54:00.011Z,1023.25
2023-04-08T09:54:59.655Z,1023.21
2023-04-08T09:56:01.474Z,1023.25
2023-04-08T09:57:01.449Z,1023.27
2023-04-08T09:58:01.919Z,1023.26
2023-04-08T09:59:02.096Z,1023.29
2023-04-08T10:00:01.094Z,1023.26
2023-04-08T10:01:01.172Z,1023.26
2023-04-08T10:02:01.186Z,1023.26
2023-04-08T10:03:01.273Z,1023.24
2023-04-08T10:04:01.418Z,1023.22
2023-04-08T10:05:01.579Z,1023.22
2023-04-08T10:06:01.792Z,1023.19
2023-04-08T10:07:01.128Z,1023.27
2023-04-08T10:08:01.024Z,1023.21
2023-04-08T10:09:01.049Z,1023.25
2023-04-08T10:10:01.067Z,1023.23
2023-04-08T10:11:01.056Z,1023.33
2023-04-08T10:12:01.106Z,1023.3
2023-04-08T10:13:01.139Z,1023.28
2023-04-08T10:14:02.555Z,1023.34
2023-04-08T10:15:01.083Z,1023.34
2023-04-08T10:16:01.076Z,1023.36
2023-04-08T10:17:01.248Z,1023.33
2023-04-08T10:18:01.142Z,1023.35
2023-04-08T10:19:01.100Z,1023.4
2023-04-08T10:20:00.784Z,1023.36
2023-04-08T10:21:00.389Z,1023.34
2023-04-08T10:21:59.985Z,1023.42
2023-04-08T10:22:59.580Z,1023.36
2023-04-08T10:24:01.830Z,1023.41
2023-04-08T10:25:01.165Z,1023.46
2023-04-08T10:26:01.046Z,1023.4
2023-04-08T10:27:01.049Z,1023.45
2023-04-08T10:28:01.069Z,1023.43
2023-04-08T10:29:01.141Z,1023.48
2023-04-08T10:30:01.475Z,1023.48
2023-04-08T10:31:01.465Z,1023.45
2023-04-08T10:32:01.411Z,1023.46
2023-04-08T10:33:01.197Z,1023.48
2023-04-08T10:34:01.107Z,1023.48
2023-04-08T10:35:00.802Z,1023.47
2023-04-08T10:36:00.512Z,1023.48
2023-04-08T10:37:00.931Z,1023.48
2023-04-08T10:38:01.134Z,1023.47
2023-04-08T10:39:01.127Z,1023.54
2023-04-08T10:40:01.139Z,1023.49
2023-04-08T10:41:00.833Z,1023.44
2023-04-08T10:42:04.726Z,1023.46
2023-04-08T10:43:01.976Z,1023.49
2023-04-08T10:44:01.875Z,1023.47
2023-04-08T10:45:00.648Z,1023.49
2023-04-08T10:46:00.304Z,1023.48
2023-04-08T10:47:06.710Z,1023.54
2023-04-08T10:48:02.086Z,1023.55
2023-04-08T10:49:01.391Z,1023.53
2023-04-08T10:50:01.088Z,1023.52
2023-04-08T10:51:01.787Z,1023.51
2023-04-08T10:52:10.497Z,1023.53
2023-04-08T10:53:01.939Z,1023.59
2023-04-08T10:54:01.536Z,1023.58
2023-04-08T10:55:00.632Z,1023.57
2023-04-08T10:56:00.235Z,1023.62
2023-04-08T10:57:12.428Z,1023.63
2023-04-08T10:58:01.045Z,1023.63
2023-04-08T10:59:01.062Z,1023.58
2023-04-08T11:00:01.039Z,1023.63
2023-04-08T11:01:01.120Z,1023.57
2023-04-08T11:02:16.718Z,1023.58
2023-04-08T11:03:01.307Z,1023.59
2023-04-08T11:04:01.182Z,1023.61
2023-04-08T11:05:02.264Z,1023.6
2023-04-08T11:06:02.559Z,1023.64
2023-04-08T11:07:01.236Z,1023.63
2023-04-08T11:08:01.124Z,1023.64
2023-04-08T11:09:01.144Z,1023.59
2023-04-08T11:10:01.511Z,1023.62
2023-04-08T11:11:01.228Z,1023.62
2023-04-08T11:12:01.129Z,1023.71
2023-04-08T11:13:01.043Z,1023.65
2023-04-08T11:14:01.044Z,1023.69
2023-04-08T11:15:00.651Z,1023.68
2023-04-08T11:16:00.616Z,1023.68
2023-04-08T11:17:00.345Z,1023.69
2023-04-08T11:17:59.989Z,1023.72
2023-04-08T11:18:59.631Z,1023.69
2023-04-08T11:20:02.250Z,1023.71
2023-04-08T11:21:02.133Z,1023.71
2023-04-08T11:22:01.753Z,1023.71
2023-04-08T11:23:01.104Z,1023.75
2023-04-08T11:24:01.112Z,1023.71
2023-04-08T11:25:01.033Z,1023.76
2023-04-08T11:26:01.048Z,1023.78
2023-04-08T11:27:02.244Z,1023.78
2023-04-08T11:28:01.056Z,1023.83
2023-04-08T11:29:01.124Z,1023.78
2023-04-08T11:30:03.939Z,1023.76
2023-04-08T11:31:02.619Z,1023.79
2023-04-08T11:32:04.592Z,1023.82
2023-04-08T11:33:01.519Z,1023.84
2023-04-08T11:34:02.002Z,1023.79
2023-04-08T11:35:01.296Z,1023.8
2023-04-08T11:36:01.238Z,1023.84
2023-04-08T11:37:01.415Z,1023.85
2023-04-08T11:38:01.704Z,1023.9
2023-04-08T11:39:01.091Z,1023.9
2023-04-08T11:40:00.781Z,1023.87
2023-04-08T11:41:00.667Z,1023.88
2023-04-08T11:42:00.411Z,1023.95
2023-04-08T11:43:00.211Z,1023.92
2023-04-08T11:43:59.901Z,1023.86
2023-04-08T11:44:59.589Z,1023.91
2023-04-08T11:46:01.255Z,1023.92
2023-04-08T11:47:01.037Z,1023.93
2023-04-08T11:48:02.948Z,1023.92
2023-04-08T11:49:01.044Z,1023.91
2023-04-08T11:50:01.060Z,1023.95
2023-04-08T11:51:01.058Z,1023.93
2023-04-08T11:52:01.090Z,1023.97
2023-04-08T11:53:00.770Z,1023.94
2023-04-08T11:54:01.127Z,1023.89
2023-04-08T11:55:00.910Z,1023.93
2023-04-08T11:56:01.170Z,1023.88
2023-04-08T11:57:01.242Z,1023.97
2023-04-08T11:58:01.422Z,1023.93
2023-04-08T11:59:01.115Z,1023.97
2023-04-08T12:00:01.128Z,1023.98
2023-04-08T12:01:01.512Z,1023.94
2023-04-08T12:02:02.349Z,1024
2023-04-08T12:03:01.100Z,1023.94
2023-04-08T12:04:01.177Z,1024.01
2023-04-08T12:05:01.146Z,1024
2023-04-08T12:06:01.847Z,1024
2023-04-08T12:07:01.063Z,1023.98
2023-04-08T12:08:01.097Z,1024.02